sensor_id;sensor_type;location;lat;lon;timestamp;pressure;altitude;pressure_sealevel;temperature;humidity
73679;BME280;61978;52.742;16.962;2022-10-31T00:00:29;101252.88;;;11.37;100.00
73679;BME280;61978;52.742;16.962;2022-10-31T00:02:55;101250.04;;;11.35;100.00
73679;BME280;61978;52.742;16.962;2022-10-31T00:05:22;101249.73;;;11.34;100.00
73679;BME280;61978;52.742;16.962;2022-10-31T00:07:53;101247.05;;;11.34;100.00
73679;BME280;61978;52.742;16.962;2022-10-31T00:10:19;101252.30;;;11.27;100.00
73679;BME280;61978;52.742;16.962;2022-10-31T00:12:46;101247.98;;;11.22;100.00
73679;BME280;61978;52.742;16.962;2022-10-31T00:15:13;101249.50;;;11.16;100.00
73679;BME280;61978;52.742;16.962;2022-10-31T00:17:40;101251.69;;;11.17;100.00
73679;BME280;61978;52.742;16.962;2022-10-31T00:20:07;101254.52;;;11.20;100.00
73679;BME280;61978;52.742;16.962;2022-10-31T00:22:34;101250.84;;;11.16;100.00
73679;BME280;61978;52.742;16.962;2022-10-31T00:25:01;101249.05;;;11.13;100.00
73679;BME280;61978;52.742;16.962;2022-10-31T00:27:27;101249.55;;;11.12;100.00
73679;BME280;61978;52.742;16.962;2022-10-31T00:29:54;101252.53;;;11.18;100.00
73679;BME280;61978;52.742;16.962;2022-10-31T00:32:20;101254.64;;;11.07;100.00
73679;BME280;61978;52.742;16.962;2022-10-31T00:34:47;101246.45;;;10.97;100.00
73679;BME280;61978;52.742;16.962;2022-10-31T00:37:14;101249.34;;;10.91;100.00
73679;BME280;61978;52.742;16.962;2022-10-31T00:39:41;101248.52;;;10.87;100.00
73679;BME280;61978;52.742;16.962;2022-10-31T00:42:08;101250.70;;;10.87;100.00
73679;BME280;61978;52.742;16.962;2022-10-31T00:44:34;101251.05;;;10.88;100.00
73679;BME280;61978;52.742;16.962;2022-10-31T00:47:00;101248.36;;;10.88;100.00
73679;BME280;61978;52.742;16.962;2022-10-31T00:49:27;101250.00;;;10.93;100.00
73679;BME280;61978;52.742;16.962;2022-10-31T00:51:55;101245.95;;;10.97;100.00
73679;BME280;61978;52.742;16.962;2022-10-31T00:54:21;101251.33;;;10.97;100.00
73679;BME280;61978;52.742;16.962;2022-10-31T00:56:49;101252.03;;;10.91;100.00
73679;BME280;61978;52.742;16.962;2022-10-31T00:59:16;101258.47;;;10.82;100.00
73679;BME280;61978;52.742;16.962;2022-10-31T01:01:42;101257.14;;;10.78;100.00
73679;BME280;61978;52.742;16.962;2022-10-31T01:04:09;101258.13;;;10.81;100.00
73679;BME280;61978;52.742;16.962;2022-10-31T01:06:36;101251.39;;;10.89;100.00
73679;BME280;61978;52.742;16.962;2022-10-31T01:09:02;101249.84;;;10.95;100.00
73679;BME280;61978;52.742;16.962;2022-10-31T01:11:29;101256.06;;;10.91;100.00
73679;BME280;61978;52.742;16.962;2022-10-31T01:13:56;101257.77;;;10.88;100.00
73679;BME280;61978;52.742;16.962;2022-10-31T01:16:24;101261.81;;;10.84;100.00
73679;BME280;61978;52.742;16.962;2022-10-31T01:18:51;101262.15;;;10.85;100.00
73679;BME280;61978;52.742;16.962;2022-10-31T01:21:21;101261.95;;;10.91;100.00
73679;BME280;61978;52.742;16.962;2022-10-31T01:23:49;101267.53;;;10.81;100.00
73679;BME280;61978;52.742;16.962;2022-10-31T01:26:19;101274.94;;;10.79;100.00
73679;BME280;61978;52.742;16.962;2022-10-31T01:28:51;101270.22;;;10.81;100.00
73679;BME280;61978;52.742;16.962;2022-10-31T01:31:20;101277.14;;;10.76;100.00
73679;BME280;61978;52.742;16.962;2022-10-31T01:33:48;101265.88;;;10.80;100.00
73679;BME280;61978;52.742;16.962;2022-10-31T01:36:21;101263.99;;;10.85;100.00
73679;BME280;61978;52.742;16.962;2022-10-31T01:38:49;101271.70;;;10.88;100.00
73679;BME280;61978;52.742;16.962;2022-10-31T01:41:25;101273.90;;;10.84;100.00
73679;BME280;61978;52.742;16.962;2022-10-31T01:43:56;101278.63;;;10.78;100.00
73679;BME280;61978;52.742;16.962;2022-10-31T01:46:29;101283.91;;;10.64;100.00
73679;BME280;61978;52.742;16.962;2022-10-31T01:48:57;101281.91;;;10.62;100.00
73679;BME280;61978;52.742;16.962;2022-10-31T01:51:28;101282.11;;;10.52;100.00
73679;BME280;61978;52.742;16.962;2022-10-31T01:53:58;101276.59;;;10.53;100.00
73679;BME280;61978;52.742;16.962;2022-10-31T01:56:25;101274.20;;;10.63;100.00
73679;BME280;61978;52.742;16.962;2022-10-31T01:58:54;101272.17;;;10.60;100.00
73679;BME280;61978;52.742;16.962;2022-10-31T02:01:21;101276.09;;;10.54;100.00
73679;BME280;61978;52.742;16.962;2022-10-31T02:03:48;101278.77;;;10.54;100.00
73679;BME280;61978;52.742;16.962;2022-10-31T02:09:02;101274.05;;;10.52;100.00
73679;BME280;61978;52.742;16.962;2022-10-31T02:11:31;101267.48;;;10.63;100.00
73679;BME280;61978;52.742;16.962;2022-10-31T02:14:00;101263.56;;;10.69;100.00
73679;BME280;61978;52.742;16.962;2022-10-31T02:16:27;101264.55;;;10.76;100.00
73679;BME280;61978;52.742;16.962;2022-10-31T02:18:54;101255.78;;;10.82;100.00
73679;BME280;61978;52.742;16.962;2022-10-31T02:21:27;101265.34;;;10.85;100.00
73679;BME280;61978;52.742;16.962;2022-10-31T02:24:17;101253.39;;;10.87;100.00
73679;BME280;61978;52.742;16.962;2022-10-31T02:26:57;101259.47;;;10.81;100.00
73679;BME280;61978;52.742;16.962;2022-10-31T02:32:15;101264.14;;;10.87;100.00
73679;BME280;61978;52.742;16.962;2022-10-31T02:37:34;101270.22;;;10.81;100.00
73679;BME280;61978;52.742;16.962;2022-10-31T02:45:44;101274.45;;;10.76;100.00
73679;BME280;61978;52.742;16.962;2022-10-31T02:48:14;101265.88;;;10.80;100.00
73679;BME280;61978;52.742;16.962;2022-10-31T02:50:44;101267.17;;;10.88;100.00
73679;BME280;61978;52.742;16.962;2022-10-31T02:53:14;101271.20;;;10.88;100.00
73679;BME280;61978;52.742;16.962;2022-10-31T02:55:44;101268.66;;;10.95;100.00
73679;BME280;61978;52.742;16.962;2022-10-31T02:58:14;101269.79;;;11.00;100.00
73679;BME280;61978;52.742;16.962;2022-10-31T03:09:20;101275.25;;;10.84;100.00
73679;BME280;61978;52.742;16.962;2022-10-31T03:11:54;101269.16;;;10.94;100.00
73679;BME280;61978;52.742;16.962;2022-10-31T03:14:22;101272.53;;;10.92;100.00
73679;BME280;61978;52.742;16.962;2022-10-31T03:16:52;101277.73;;;10.90;100.00
73679;BME280;61978;52.742;16.962;2022-10-31T03:19:26;101279.81;;;10.84;100.00
73679;BME280;61978;52.742;16.962;2022-10-31T03:21:58;101272.25;;;10.83;100.00
73679;BME280;61978;52.742;16.962;2022-10-31T03:24:27;101272.25;;;10.83;100.00
73679;BME280;61978;52.742;16.962;2022-10-31T03:26:56;101279.91;;;10.90;100.00
73679;BME280;61978;52.742;16.962;2022-10-31T03:29:27;101285.48;;;10.89;100.00
73679;BME280;61978;52.742;16.962;2022-10-31T03:32:09;101286.34;;;10.81;100.00
73679;BME280;61978;52.742;16.962;2022-10-31T03:34:41;101287.87;;;10.80;100.00
73679;BME280;61978;52.742;16.962;2022-10-31T03:37:11;101288.23;;;10.73;100.00
73679;BME280;61978;52.742;16.962;2022-10-31T03:39:45;101289.08;;;10.73;100.00
73679;BME280;61978;52.742;16.962;2022-10-31T03:42:15;101289.44;;;10.66;100.00
73679;BME280;61978;52.742;16.962;2022-10-31T03:44:55;101287.28;;;10.66;100.00
73679;BME280;61978;52.742;16.962;2022-10-31T03:47:13;101291.47;;;10.68;100.00
73679;BME280;61978;52.742;16.962;2022-10-31T03:49:39;101291.42;;;10.72;100.00
73679;BME280;61978;52.742;16.962;2022-10-31T03:52:25;101286.88;;;10.77;100.00
73679;BME280;61978;52.742;16.962;2022-10-31T03:54:58;101283.34;;;10.80;100.00
73679;BME280;61978;52.742;16.962;2022-10-31T03:57:37;101274.59;;;10.86;100.00
73679;BME280;61978;52.742;16.962;2022-10-31T04:00:10;101286.69;;;10.82;100.00
73679;BME280;61978;52.742;16.962;2022-10-31T04:02:53;101288.38;;;10.79;100.00
73679;BME280;61978;52.742;16.962;2022-10-31T04:05:17;101291.11;;;10.71;100.00
73679;BME280;61978;52.742;16.962;2022-10-31T04:07:46;101284.90;;;10.71;100.00
73679;BME280;61978;52.742;16.962;2022-10-31T04:10:15;101280.67;;;10.76;100.00
73679;BME280;61978;52.742;16.962;2022-10-31T04:12:45;101287.39;;;10.76;100.00
73679;BME280;61978;52.742;16.962;2022-10-31T04:15:21;101278.98;;;10.79;100.00
73679;BME280;61978;52.742;16.962;2022-10-31T04:17:51;101278.28;;;10.81;100.00
73679;BME280;61978;52.742;16.962;2022-10-31T04:20:31;101283.01;;;10.79;100.00
73679;BME280;61978;52.742;16.962;2022-10-31T04:22:58;101282.00;;;10.80;100.00
73679;BME280;61978;52.742;16.962;2022-10-31T04:25:25;101288.38;;;10.79;100.00
73679;BME280;61978;52.742;16.962;2022-10-31T04:27:51;101279.81;;;10.80;100.00
73679;BME280;61978;52.742;16.962;2022-10-31T04:30:18;101273.95;;;10.76;100.00
73679;BME280;61978;52.742;16.962;2022-10-31T04:32:45;101286.24;;;10.71;100.00
73679;BME280;61978;52.742;16.962;2022-10-31T04:35:12;101289.08;;;10.73;100.00
73679;BME280;61978;52.742;16.962;2022-10-31T04:37:41;101286.20;;;10.79;100.00
73679;BME280;61978;52.742;16.962;2022-10-31T04:40:08;101287.54;;;10.79;100.00
73679;BME280;61978;52.742;16.962;2022-10-31T04:42:53;101290.58;;;10.76;100.00
73679;BME280;61978;52.742;16.962;2022-10-31T04:45:20;101295.11;;;10.75;100.00
73679;BME280;61978;52.742;16.962;2022-10-31T04:47:47;101299.13;;;10.79;100.00
73679;BME280;61978;52.742;16.962;2022-10-31T04:50:14;101299.48;;;10.76;100.00
73679;BME280;61978;52.742;16.962;2022-10-31T04:52:44;101311.91;;;10.77;100.00
73679;BME280;61978;52.742;16.962;2022-10-31T04:55:12;101301.47;;;10.82;100.00
73679;BME280;61978;52.742;16.962;2022-10-31T04:57:51;101304.50;;;10.79;100.00
73679;BME280;61978;52.742;16.962;2022-10-31T05:00:21;101303.84;;;10.77;100.00
73679;BME280;61978;52.742;16.962;2022-10-31T05:02:50;101311.62;;;10.64;100.00
73679;BME280;61978;52.742;16.962;2022-10-31T05:05:19;101304.91;;;10.64;100.00
73679;BME280;61978;52.742;16.962;2022-10-31T05:07:47;101310.97;;;10.62;100.00
73679;BME280;61978;52.742;16.962;2022-10-31T05:10:18;101319.03;;;10.58;100.00
73679;BME280;61978;52.742;16.962;2022-10-31T05:12:50;101312.62;;;10.63;100.00
73679;BME280;61978;52.742;16.962;2022-10-31T05:15:25;101315.84;;;10.63;100.00
73679;BME280;61978;52.742;16.962;2022-10-31T05:18:00;101321.37;;;10.61;100.00
73679;BME280;61978;52.742;16.962;2022-10-31T05:20:29;101315.84;;;10.58;100.00
73679;BME280;61978;52.742;16.962;2022-10-31T05:22:58;101319.72;;;10.56;100.00
73679;BME280;61978;52.742;16.962;2022-10-31T05:25:27;101318.68;;;10.61;100.00
73679;BME280;61978;52.742;16.962;2022-10-31T05:27:54;101312.77;;;10.70;100.00
73679;BME280;61978;52.742;16.962;2022-10-31T05:30:24;101315.95;;;10.77;100.00
73679;BME280;61978;52.742;16.962;2022-10-31T05:32:52;101317.28;;;10.77;100.00
73679;BME280;61978;52.742;16.962;2022-10-31T05:35:37;101319.27;;;10.83;100.00
73679;BME280;61978;52.742;16.962;2022-10-31T05:38:08;101312.51;;;10.91;100.00
73679;BME280;61978;52.742;16.962;2022-10-31T05:40:34;101309.62;;;10.97;100.00
73679;BME280;61978;52.742;16.962;2022-10-31T05:43:01;101303.38;;;11.04;100.00
73679;BME280;61978;52.742;16.962;2022-10-31T05:45:27;101312.45;;;10.99;100.00
73679;BME280;61978;52.742;16.962;2022-10-31T05:47:59;101325.39;;;11.00;100.00
73679;BME280;61978;52.742;16.962;2022-10-31T05:50:31;101323.61;;;10.88;100.00
73679;BME280;61978;52.742;16.962;2022-10-31T05:53:10;101318.43;;;10.83;100.00
73679;BME280;61978;52.742;16.962;2022-10-31T05:55:37;101317.89;;;10.87;100.00
73679;BME280;61978;52.742;16.962;2022-10-31T05:58:20;101309.27;;;11.00;100.00
73679;BME280;61978;52.742;16.962;2022-10-31T06:01:03;101304.33;;;11.11;100.00
73679;BME280;61978;52.742;16.962;2022-10-31T06:03:32;101307.31;;;11.16;100.00
73679;BME280;61978;52.742;16.962;2022-10-31T06:06:00;101310.68;;;11.19;100.00
73679;BME280;61978;52.742;16.962;2022-10-31T06:08:28;101321.44;;;11.19;100.00
73679;BME280;61978;52.742;16.962;2022-10-31T06:10:55;101318.39;;;11.22;100.00
73679;BME280;61978;52.742;16.962;2022-10-31T06:13:23;101318.33;;;11.30;100.00
73679;BME280;61978;52.742;16.962;2022-10-31T06:15:51;101314.66;;;11.27;100.00
73679;BME280;61978;52.742;16.962;2022-10-31T06:18:20;101315.34;;;11.25;100.00
73679;BME280;61978;52.742;16.962;2022-10-31T06:20:48;101322.73;;;11.23;100.00
73679;BME280;61978;52.742;16.962;2022-10-31T06:23:15;101312.73;;;11.39;100.00
73679;BME280;61978;52.742;16.962;2022-10-31T06:25:42;101315.34;;;11.74;100.00
73679;BME280;61978;52.742;16.962;2022-10-31T06:28:11;101322.56;;;11.51;100.00
73679;BME280;61978;52.742;16.962;2022-10-31T06:30:54;101326.23;;;11.54;100.00
73679;BME280;61978;52.742;16.962;2022-10-31T06:33:21;101316.08;;;12.05;100.00
73679;BME280;61978;52.742;16.962;2022-10-31T06:35:52;101326.56;;;11.82;100.00
73679;BME280;61978;52.742;16.962;2022-10-31T06:38:19;101337.67;;;11.97;100.00
73679;BME280;61978;52.742;16.962;2022-10-31T06:40:45;101348.77;;;11.53;100.00
73679;BME280;61978;52.742;16.962;2022-10-31T06:43:23;101346.65;;;11.71;100.00
73679;BME280;61978;52.742;16.962;2022-10-31T06:45:51;101344.80;;;11.45;100.00
73679;BME280;61978;52.742;16.962;2022-10-31T06:48:24;101359.23;;;11.48;100.00
73679;BME280;61978;52.742;16.962;2022-10-31T06:51:09;101356.98;;;11.29;100.00
73679;BME280;61978;52.742;16.962;2022-10-31T06:53:36;101367.02;;;11.39;100.00
73679;BME280;61978;52.742;16.962;2022-10-31T06:56:05;101365.89;;;11.56;100.00
73679;BME280;61978;52.742;16.962;2022-10-31T06:58:33;101368.86;;;11.65;100.00
73679;BME280;61978;52.742;16.962;2022-10-31T07:01:01;101369.18;;;11.70;100.00
73679;BME280;61978;52.742;16.962;2022-10-31T07:03:28;101369.45;;;11.79;100.00
73679;BME280;61978;52.742;16.962;2022-10-31T07:05:56;101378.06;;;11.79;100.00
73679;BME280;61978;52.742;16.962;2022-10-31T07:08:24;101384.25;;;11.79;100.00
73679;BME280;61978;52.742;16.962;2022-10-31T07:10:54;101382.55;;;11.82;100.00
73679;BME280;61978;52.742;16.962;2022-10-31T07:13:22;101393.16;;;11.53;100.00
73679;BME280;61978;52.742;16.962;2022-10-31T07:16:00;101400.91;;;11.52;100.00
73679;BME280;61978;52.742;16.962;2022-10-31T07:18:27;101407.95;;;11.53;100.00
73679;BME280;61978;52.742;16.962;2022-10-31T07:20:55;101406.32;;;11.44;100.00
73679;BME280;61978;52.742;16.962;2022-10-31T07:23:22;101413.67;;;11.54;100.00
73679;BME280;61978;52.742;16.962;2022-10-31T07:25:55;101411.33;;;11.55;100.00
73679;BME280;61978;52.742;16.962;2022-10-31T07:28:24;101405.14;;;11.77;100.00
73679;BME280;61978;52.742;16.962;2022-10-31T07:30:53;101402.73;;;11.82;100.00
73679;BME280;61978;52.742;16.962;2022-10-31T07:33:21;101401.91;;;12.04;100.00
73679;BME280;61978;52.742;16.962;2022-10-31T07:35:56;101398.99;;;12.10;100.00
73679;BME280;61978;52.742;16.962;2022-10-31T07:38:24;101401.80;;;12.16;100.00
73679;BME280;61978;52.742;16.962;2022-10-31T07:40:52;101396.44;;;12.12;100.00
73679;BME280;61978;52.742;16.962;2022-10-31T07:43:19;101388.92;;;12.41;100.00
73679;BME280;61978;52.742;16.962;2022-10-31T07:45:54;101390.72;;;12.49;100.00
73679;BME280;61978;52.742;16.962;2022-10-31T07:48:28;101382.17;;;12.60;100.00
73679;BME280;61978;52.742;16.962;2022-10-31T07:51:09;101385.30;;;12.67;100.00
73679;BME280;61978;52.742;16.962;2022-10-31T07:53:37;101381.56;;;12.83;100.00
73679;BME280;61978;52.742;16.962;2022-10-31T07:56:08;101383.52;;;12.89;100.00
73679;BME280;61978;52.742;16.962;2022-10-31T07:58:34;101387.29;;;12.84;100.00
73679;BME280;61978;52.742;16.962;2022-10-31T08:01:01;101379.77;;;12.94;100.00
73679;BME280;61978;52.742;16.962;2022-10-31T08:03:29;101377.33;;;12.99;100.00
73679;BME280;61978;52.742;16.962;2022-10-31T08:06:13;101383.37;;;13.01;100.00
73679;BME280;61978;52.742;16.962;2022-10-31T08:08:43;101382.02;;;13.01;100.00
73679;BME280;61978;52.742;16.962;2022-10-31T08:11:10;101385.83;;;12.92;100.00
73679;BME280;61978;52.742;16.962;2022-10-31T08:13:37;101378.05;;;12.97;100.00
73679;BME280;61978;52.742;16.962;2022-10-31T08:16:05;101380.97;;;13.06;100.00
73679;BME280;61978;52.742;16.962;2022-10-31T08:18:34;101383.75;;;13.13;100.00
73679;BME280;61978;52.742;16.962;2022-10-31T08:21:03;101382.75;;;13.24;100.00
73679;BME280;61978;52.742;16.962;2022-10-31T08:23:30;101379.33;;;13.16;100.00
73679;BME280;61978;52.742;16.962;2022-10-31T08:25:57;101384.17;;;13.20;100.00
73679;BME280;61978;52.742;16.962;2022-10-31T08:28:24;101381.14;;;13.45;100.00
73679;BME280;61978;52.742;16.962;2022-10-31T08:30:50;101382.16;;;13.44;100.00
73679;BME280;61978;52.742;16.962;2022-10-31T08:33:35;101385.66;;;13.59;100.00
73679;BME280;61978;52.742;16.962;2022-10-31T08:36:20;101379.53;;;13.61;100.00
73679;BME280;61978;52.742;16.962;2022-10-31T08:38:49;101383.28;;;13.60;100.00
73679;BME280;61978;52.742;16.962;2022-10-31T08:41:16;101397.72;;;13.52;100.00
73679;BME280;61978;52.742;16.962;2022-10-31T08:43:43;101391.56;;;13.58;100.00
73679;BME280;61978;52.742;16.962;2022-10-31T08:46:10;101390.13;;;13.52;100.00
73679;BME280;61978;52.742;16.962;2022-10-31T08:48:38;101402.48;;;13.61;100.00
73679;BME280;61978;52.742;16.962;2022-10-31T08:51:05;101400.92;;;13.52;100.00
73679;BME280;61978;52.742;16.962;2022-10-31T08:53:32;101412.10;;;13.49;100.00
73679;BME280;61978;52.742;16.962;2022-10-31T08:56:00;101418.11;;;13.29;100.00
73679;BME280;61978;52.742;16.962;2022-10-31T08:58:27;101416.86;;;13.47;100.00
73679;BME280;61978;52.742;16.962;2022-10-31T09:00:55;101429.55;;;13.31;100.00
73679;BME280;61978;52.742;16.962;2022-10-31T09:03:24;101429.55;;;13.31;100.00
73679;BME280;61978;52.742;16.962;2022-10-31T09:06:01;101422.00;;;13.42;100.00
73679;BME280;61978;52.742;16.962;2022-10-31T09:08:26;101431.31;;;13.24;100.00
73679;BME280;61978;52.742;16.962;2022-10-31T09:10:56;101439.02;;;12.98;100.00
73679;BME280;61978;52.742;16.962;2022-10-31T09:13:24;101430.14;;;13.38;100.00
73679;BME280;61978;52.742;16.962;2022-10-31T09:16:10;101432.88;;;13.33;100.00
73679;BME280;61978;52.742;16.962;2022-10-31T09:18:36;101434.73;;;13.48;100.00
73679;BME280;61978;52.742;16.962;2022-10-31T09:21:03;101437.39;;;13.37;100.00
73679;BME280;61978;52.742;16.962;2022-10-31T09:23:30;101428.12;;;13.50;100.00
73679;BME280;61978;52.742;16.962;2022-10-31T09:25:59;101431.49;;;13.63;100.00
73679;BME280;61978;52.742;16.962;2022-10-31T09:28:31;101428.88;;;13.80;100.00
73679;BME280;61978;52.742;16.962;2022-10-31T09:31:11;101427.05;;;13.87;100.00
73679;BME280;61978;52.742;16.962;2022-10-31T09:33:53;101421.66;;;13.87;100.00
73679;BME280;61978;52.742;16.962;2022-10-31T09:36:21;101421.55;;;14.16;100.00
73679;BME280;61978;52.742;16.962;2022-10-31T09:38:48;101419.72;;;14.23;100.00
73679;BME280;61978;52.742;16.962;2022-10-31T09:41:28;101419.66;;;14.38;100.00
73679;BME280;61978;52.742;16.962;2022-10-31T09:44:07;101426.18;;;14.33;100.00
73679;BME280;61978;52.742;16.962;2022-10-31T09:52:24;101438.63;;;14.02;100.00
73679;BME280;61978;52.742;16.962;2022-10-31T09:54:55;101431.70;;;14.35;100.00
73679;BME280;61978;52.742;16.962;2022-10-31T09:57:31;101429.75;;;14.51;100.00
73679;BME280;61978;52.742;16.962;2022-10-31T09:59:58;101426.78;;;14.73;100.00
73679;BME280;61978;52.742;16.962;2022-10-31T10:02:35;101423.72;;;15.00;100.00
73679;BME280;61978;52.742;16.962;2022-10-31T10:05:09;101423.25;;;15.07;100.00
73679;BME280;61978;52.742;16.962;2022-10-31T10:07:40;101425.81;;;14.81;100.00
73679;BME280;61978;52.742;16.962;2022-10-31T10:10:23;101422.88;;;14.93;100.00
73679;BME280;61978;52.742;16.962;2022-10-31T10:15:59;101423.70;;;15.11;100.00
73679;BME280;61978;52.742;16.962;2022-10-31T10:23:47;101427.23;;;15.11;100.00
73679;BME280;61978;52.742;16.962;2022-10-31T10:26:19;101429.66;;;15.40;100.00
73679;BME280;61978;52.742;16.962;2022-10-31T10:29:10;101434.63;;;15.13;100.00
73679;BME280;61978;52.742;16.962;2022-10-31T10:31:38;101437.65;;;14.97;100.00
73679;BME280;61978;52.742;16.962;2022-10-31T10:34:11;101438.19;;;15.37;100.00
73679;BME280;61978;52.742;16.962;2022-10-31T10:36:42;101434.23;;;15.40;100.00
73679;BME280;61978;52.742;16.962;2022-10-31T10:39:24;101430.50;;;15.24;100.00
73679;BME280;61978;52.742;16.962;2022-10-31T10:41:51;101436.86;;;15.20;100.00
73679;BME280;61978;52.742;16.962;2022-10-31T10:44:42;101440.13;;;14.92;100.00
73679;BME280;61978;52.742;16.962;2022-10-31T10:47:31;101437.75;;;14.93;100.00
73679;BME280;61978;52.742;16.962;2022-10-31T10:50:25;101422.75;;;15.31;100.00
73679;BME280;61978;52.742;16.962;2022-10-31T10:58:18;101420.47;;;16.02;100.00
73679;BME280;61978;52.742;16.962;2022-10-31T11:00:46;101417.78;;;16.08;100.00
73679;BME280;61978;52.742;16.962;2022-10-31T11:03:14;101409.53;;;16.19;100.00
73679;BME280;61978;52.742;16.962;2022-10-31T11:05:56;101412.55;;;16.33;100.00
73679;BME280;61978;52.742;16.962;2022-10-31T11:08:29;101416.84;;;16.25;100.00
73679;BME280;61978;52.742;16.962;2022-10-31T11:13:27;101425.52;;;15.75;100.00
73679;BME280;61978;52.742;16.962;2022-10-31T11:16:07;101411.89;;;15.79;100.00
73679;BME280;61978;52.742;16.962;2022-10-31T11:18:26;101423.55;;;15.86;100.00
73679;BME280;61978;52.742;16.962;2022-10-31T11:20:56;101416.68;;;15.83;100.00
73679;BME280;61978;52.742;16.962;2022-10-31T11:23:25;101409.42;;;15.97;100.00
73679;BME280;61978;52.742;16.962;2022-10-31T11:26:03;101403.50;;;16.24;100.00
73679;BME280;61978;52.742;16.962;2022-10-31T11:28:31;101408.17;;;15.99;100.00
73679;BME280;61978;52.742;16.962;2022-10-31T11:31:10;101409.84;;;16.07;100.00
73679;BME280;61978;52.742;16.962;2022-10-31T11:33:39;101411.02;;;16.15;100.00
73679;BME280;61978;52.742;16.962;2022-10-31T11:36:27;101405.88;;;16.16;100.00
73679;BME280;61978;52.742;16.962;2022-10-31T11:38:55;101405.70;;;16.24;100.00
73679;BME280;61978;52.742;16.962;2022-10-31T11:41:33;101410.28;;;16.24;100.00
73679;BME280;61978;52.742;16.962;2022-10-31T11:44:04;101416.08;;;16.01;100.00
73679;BME280;61978;52.742;16.962;2022-10-31T11:46:37;101414.31;;;16.04;100.00
73679;BME280;61978;52.742;16.962;2022-10-31T11:49:02;101429.48;;;15.72;100.00
73679;BME280;61978;52.742;16.962;2022-10-31T11:51:32;101429.16;;;15.65;100.00
73679;BME280;61978;52.742;16.962;2022-10-31T11:54:01;101422.73;;;15.79;100.00
73679;BME280;61978;52.742;16.962;2022-10-31T11:56:42;101416.44;;;16.15;100.00
73679;BME280;61978;52.742;16.962;2022-10-31T11:59:30;101411.09;;;16.31;100.00
73679;BME280;61978;52.742;16.962;2022-10-31T12:01:55;101407.36;;;16.38;100.00
73679;BME280;61978;52.742;16.962;2022-10-31T12:04:29;101417.17;;;16.33;100.00
73679;BME280;61978;52.742;16.962;2022-10-31T12:06:55;101413.28;;;16.25;100.00
73679;BME280;61978;52.742;16.962;2022-10-31T12:14:47;101410.58;;;16.25;100.00
73679;BME280;61978;52.742;16.962;2022-10-31T12:17:27;101408.60;;;16.03;100.00
73679;BME280;61978;52.742;16.962;2022-10-31T12:25:50;101415.80;;;16.20;100.00
73679;BME280;61978;52.742;16.962;2022-10-31T12:45:00;101401.88;;;16.84;100.00
73679;BME280;61978;52.742;16.962;2022-10-31T12:50:21;101400.59;;;17.00;100.00
73679;BME280;61978;52.742;16.962;2022-10-31T12:55:48;101402.73;;;16.85;100.00
73679;BME280;61978;52.742;16.962;2022-10-31T12:58:24;101400.41;;;16.95;100.00
73679;BME280;61978;52.742;16.962;2022-10-31T13:01:27;101401.38;;;16.78;100.00
73679;BME280;61978;52.742;16.962;2022-10-31T13:03:38;101400.53;;;16.84;100.00
73679;BME280;61978;52.742;16.962;2022-10-31T13:06:09;101404.69;;;16.87;100.00
73679;BME280;61978;52.742;16.962;2022-10-31T13:08:39;101401.55;;;16.90;100.00
73679;BME280;61978;52.742;16.962;2022-10-31T13:16:52;101392.38;;;17.19;100.00
73679;BME280;61978;52.742;16.962;2022-10-31T13:19:24;101392.94;;;17.35;100.00
73679;BME280;61978;52.742;16.962;2022-10-31T13:24:34;101401.45;;;16.94;100.00
73679;BME280;61978;52.742;16.962;2022-10-31T13:27:10;101400.44;;;16.82;100.00
73679;BME280;61978;52.742;16.962;2022-10-31T13:29:44;101395.34;;;16.76;100.00
73679;BME280;61978;52.742;16.962;2022-10-31T13:32:06;101399.16;;;16.91;100.00
73679;BME280;61978;52.742;16.962;2022-10-31T13:37:27;101391.49;;;17.32;100.00
73679;BME280;61978;52.742;16.962;2022-10-31T13:45:25;101390.58;;;17.51;100.00
73679;BME280;61978;52.742;16.962;2022-10-31T13:48:00;101395.02;;;17.39;100.00
73679;BME280;61978;52.742;16.962;2022-10-31T13:50:30;101396.90;;;17.39;100.00
73679;BME280;61978;52.742;16.962;2022-10-31T13:55:50;101411.52;;;16.34;100.00
73679;BME280;61978;52.742;16.962;2022-10-31T13:58:26;101400.26;;;16.44;100.00
73679;BME280;61978;52.742;16.962;2022-10-31T14:03:38;101400.57;;;16.25;100.00
73679;BME280;61978;52.742;16.962;2022-10-31T14:06:07;101393.48;;;16.37;100.00
73679;BME280;61978;52.742;16.962;2022-10-31T14:08:40;101401.62;;;16.18;100.00
73679;BME280;61978;52.742;16.962;2022-10-31T14:11:09;101399.22;;;16.25;100.00
73679;BME280;61978;52.742;16.962;2022-10-31T14:13:43;101384.41;;;16.41;100.00
73679;BME280;61978;52.742;16.962;2022-10-31T14:16:23;101387.34;;;16.59;100.00
73679;BME280;61978;52.742;16.962;2022-10-31T14:21:43;101398.40;;;16.18;100.00
73679;BME280;61978;52.742;16.962;2022-10-31T14:24:15;101397.34;;;16.06;100.00
73679;BME280;61978;52.742;16.962;2022-10-31T14:27:00;101391.91;;;16.12;100.00
73679;BME280;61978;52.742;16.962;2022-10-31T14:29:29;101404.11;;;15.99;100.00
73679;BME280;61978;52.742;16.962;2022-10-31T14:32:04;101399.73;;;16.05;100.00